Flight Track Log - Related Links

Times and Time Zones

All times are in EDT time to prevent confusion due to time zone crossing. See the UAL33 flight status page for this flight to view local times or setup timezone preferences in your user account.

Time Position Orientation Groundspeed Altitude Reporting Facility
EDT Latitude Longitude Course Direction KTS MPH feet Rate Location/Type
Wed 04:45:26 AM 35.7790 140.3650 328° Northwest 177 204 1,200  Level FlightAware ADS-B
Wed 04:45:41 AM 35.7900 140.3570 329° Northwest 180 207 1,800 1,886 Climbing FlightAware ADS-B
Wed 04:46:01 AM 35.8050 140.3460 329° Northwest 190 219 2,300 1,950 Climbing FlightAware ADS-B
Wed 04:46:21 AM 35.8210 140.3350 331° Northwest 190 219 3,100 1,909 Climbing FlightAware ADS-B
Wed 04:46:45 AM 35.8390 140.3220 330° Northwest 210 242 3,700 1,227 Climbing FlightAware ADS-B
Wed 04:47:05 AM 35.8570 140.3090 330° Northwest 238 274 4,000 1,171 Climbing FlightAware ADS-B
Wed 04:47:26 AM 35.8780 140.2930 328° Northwest 260 299 4,500 1,500 Climbing FlightAware ADS-B
Wed 04:47:41 AM 35.8960 140.2840 338° Northwest 276 318 4,900 1,826 Climbing FlightAware ADS-B
Wed 04:47:49 AM 35.9060 140.2830 355° North 277 319 5,200 2,438 Climbing FlightAware ADS-B
Wed 04:48:13 AM 35.9340 140.2980 23° Northeast 277 319 6,200 2,438 Climbing FlightAware ADS-B
Wed 04:48:21 AM 35.9400 140.3070 51° Northeast 279 321 6,500 1,500 Climbing FlightAware ADS-B
Wed 04:48:29 AM 35.9440 140.3180 66° East 280 322 6,600 1,500 Climbing FlightAware ADS-B
Wed 04:48:33 AM 35.9460 140.3250 71° East 280 322 6,800 2,182 Climbing FlightAware ADS-B
Wed 04:48:40 AM 35.9470 140.3340 82° East 280 322 7,000 2,000 Climbing FlightAware ADS-B
Wed 04:49:00 AM 35.9430 140.3580 102° East 276 318 7,700 2,400 Climbing FlightAware ADS-B
Wed 04:49:25 AM 35.9240 140.4030 118° Southeast 290 334 8,800 2,533 Climbing FlightAware ADS-B
Wed 04:49:45 AM 35.9080 140.4310 125° Southeast 296 341 9,600 1,929 Climbing FlightAware ADS-B
Wed 04:50:21 AM 35.8780 140.4800 127° Southeast 319 367 10,600 1,500 Climbing FlightAware ADS-B
Wed 04:50:57 AM 35.8430 140.5360 128° Southeast 355 409 11,400 1,765 Climbing FlightAware ADS-B
Wed 04:51:29 AM 35.8110 140.5880 127° Southeast 367 422 12,600 1,765 Climbing FlightAware ADS-B
Wed 04:52:05 AM 35.7720 140.6510 127° Southeast 398 458 13,400 1,583 Climbing FlightAware ADS-B
Wed 04:52:41 AM 35.7310 140.7160 128° Southeast 416 479 14,500 1,333 Climbing FlightAware ADS-B
Wed 04:53:17 AM 35.6870 140.7870 127° Southeast 447 514 15,000 514 Climbing FlightAware ADS-B
Wed 04:53:51 AM 35.6440 140.8560 127° Southeast 453 521 15,100 2,400 Climbing FlightAware ADS-B
Wed 04:54:27 AM 35.6000 140.9270 127° Southeast 418 481 17,800 3,324 Climbing FlightAware ADS-B
Wed 04:55:05 AM 35.5660 141.0020 119° Southeast 422 486 19,200 2,022 Climbing FlightAware ADS-B
Wed 04:55:56 AM 35.5640 141.1270 91° East 437 503 20,800 1,862 Climbing FlightAware ADS-B
Wed 04:56:32 AM 35.5790 141.2120 78° East 445 512 21,900 1,667 Climbing FlightAware ADS-B
Wed 04:57:08 AM 35.5930 141.3020 79° East 450 518 22,800 1,520 Climbing FlightAware ADS-B
Wed 04:57:47 AM 35.5930 141.4000 90° East 458 527 23,800 1,403 Climbing FlightAware ADS-B
Wed 04:58:25 AM 35.5910 141.4960 91° East 467 537 24,600 1,315 Climbing FlightAware ADS-B
Wed 04:59:00 AM 35.5860 141.5960 93° East 476 548 25,400 1,360 Climbing FlightAware ADS-B
Wed 04:59:40 AM 35.5810 141.7040 93° East 484 557 26,300 1,308 Climbing FlightAware ADS-B
Wed 05:00:18 AM 35.5770 141.8070 93° East 491 565 27,100 1,297 Climbing FlightAware ADS-B
Wed 05:00:54 AM 35.5730 141.8940 93° East 494 568 27,900 1,348 Climbing FlightAware ADS-B
Wed 05:01:47 AM 35.5670 142.0630 92° East 502 578 29,100 1,159 Climbing FlightAware ADS-B
Wed 05:02:22 AM 35.5630 142.1570 93° East 510 587 29,600 943 Climbing FlightAware ADS-B
Wed 05:02:57 AM 35.5570 142.2660 94° East 516 594 30,200 1,114 Climbing FlightAware ADS-B
Wed 05:03:32 AM 35.5510 142.3670 94° East 518 596 30,900 1,200 Climbing FlightAware ADS-B
Wed 05:04:17 AM 35.5520 142.4990 89° East 520 598 31,800 1,125 Climbing FlightAware ADS-B
Wed 05:04:52 AM 35.5700 142.5960 77° East 524 603 32,400 960 Climbing FlightAware ADS-B
Wed 05:05:32 AM 35.5940 142.7100 75° East 530 610 33,000 900 Climbing FlightAware ADS-B
Wed 05:06:12 AM 35.6170 142.8180 75° East 533 613 33,600 1,263 Climbing FlightAware ADS-B
Wed 05:06:48 AM 35.6400 142.9300 76° East 527 606 34,600 1,457 Climbing FlightAware ADS-B
Wed 05:07:22 AM 35.6600 143.0270 76° East 526 605 35,300 1,114 Climbing FlightAware ADS-B
Wed 05:07:58 AM 35.6820 143.1320 76° East 526 605 35,900 857 Climbing FlightAware ADS-B
Wed 05:08:46 AM 35.7110 143.2680 75° East 526 605 36,500 786 Climbing FlightAware ADS-B
Wed 05:09:22 AM 35.7340 143.3800 76° East 528 608 37,000 370 Climbing FlightAware ADS-B
Wed 05:10:07 AM 35.7580 143.4970 76° East 532 612 37,000  Level FlightAware ADS-B
Wed 05:10:43 AM 35.7780 143.5860 74° East 532 612 37,000  Level FlightAware ADS-B
Wed 05:11:23 AM 35.8060 143.7350 77° East 537 618 37,000  Level FlightAware ADS-B
Wed 05:11:57 AM 35.8270 143.8390 76° East 539 620 37,000  Level FlightAware ADS-B
Wed 05:12:53 AM 35.8580 143.9910 76° East 540 621 37,000  Level FlightAware ADS-B
Wed 05:13:29 AM 35.8760 144.0830 76° East 540 621 37,000  Level FlightAware ADS-B
Wed 05:14:05 AM 35.8950 144.1740 76° East 540 621 37,000  Level FlightAware ADS-B
Wed 05:14:42 AM 35.9140 144.2690 76° East 540 621 37,000  Level FlightAware ADS-B
Wed 05:15:18 AM 35.9320 144.3600 76° East 540 621 37,000  Level FlightAware ADS-B
Wed 05:15:54 AM 35.9510 144.4520 76° East 540 621 37,000  Level FlightAware ADS-B
Wed 05:16:32 AM 35.9890 144.6600 77° East 537 618 37,000  Level FlightAware ADS-B
Wed 05:17:07 AM 36.0100 144.7660 76° East 538 619 37,000  Level FlightAware ADS-B
Wed 05:17:47 AM 36.0310 144.8790 77° East 539 620 37,000  Level FlightAware ADS-B
Wed 05:18:39 AM 36.0600 145.0330 77° East 540 621 37,000  Level FlightAware ADS-B
Wed 05:19:15 AM 36.0780 145.1250 76° East 540 621 37,000  Level FlightAware ADS-B
Wed 05:19:49 AM 36.0940 145.2120 77° East 540 621 37,000  Level FlightAware ADS-B
Wed 05:20:25 AM 36.1110 145.3040 77° East 540 621 37,000  Level FlightAware ADS-B
Wed 05:21:01 AM 36.1280 145.3960 77° East 540 621 37,000  Level FlightAware ADS-B
Wed 05:21:38 AM 36.1460 145.4910 77° East 540 621 37,000  Level FlightAware ADS-B
Wed 05:22:14 AM 36.1630 145.5840 77° East 540 621 37,000  Level FlightAware ADS-B
Wed 05:22:50 AM 36.1800 145.6760 77° East 540 621 37,000  Level FlightAware ADS-B
Wed 05:23:26 AM 36.1970 145.7680 77° East 540 621 37,000  Level FlightAware ADS-B
Wed 05:24:02 AM 36.2150 145.8600 76° East 540 621 37,000  Level FlightAware ADS-B
Wed 05:24:36 AM 36.2310 145.9480 77° East 540 621 37,000  Level FlightAware ADS-B
Wed 05:25:12 AM 36.2480 146.0400 77° East 540 621 37,000  Level FlightAware ADS-B
Wed 05:25:48 AM 36.2650 146.1320 77° East 540 621 37,000  Level FlightAware ADS-B
Wed 05:26:25 AM 36.2830 146.2270 77° East 540 621 37,000  Level FlightAware ADS-B
Wed 05:27:01 AM 36.3000 146.3200 77° East 540 621 37,000  Level FlightAware ADS-B
Wed 05:27:37 AM 36.3170 146.4120 77° East 540 621 37,000 18 Level FlightAware ADS-B
Wed 05:30:00 AM 36.4335 146.8219 70° East  Level FlightAware Approximate
Wed 05:31:00 AM 36.4819 146.9942 71° East  Level FlightAware Approximate
Wed 05:32:00 AM 36.5301 147.1668 71° East  Level FlightAware Approximate
Wed 05:33:00 AM 36.5781 147.3396 71° East  Level FlightAware Approximate
Wed 05:34:00 AM 36.6258 147.5126 71° East  Level FlightAware Approximate
Wed 05:35:00 AM 36.6732 147.6858 71° East  Level FlightAware Approximate
Wed 05:36:00 AM 36.7204 147.8592 71° East  Level FlightAware Approximate
Wed 05:37:00 AM 36.7674 148.0329 71° East  Level FlightAware Approximate
Wed 05:38:00 AM 36.8141 148.2067 71° East  Level FlightAware Approximate
Wed 05:39:00 AM 36.8605 148.3808 72° East  Level FlightAware Approximate
Wed 05:40:00 AM 36.8912 148.5628 84° East  Level FlightAware Approximate
Wed 05:41:00 AM 36.9060 148.7455 84° East  Level FlightAware Approximate
Wed 05:42:00 AM 36.9206 148.9283 84° East  Level FlightAware Approximate
Wed 05:43:00 AM 36.9348 149.1111 84° East  Level FlightAware Approximate
Wed 05:44:00 AM 36.9488 149.2940 84° East  Level FlightAware Approximate
Wed 05:45:00 AM 36.9624 149.4770 85° East  Level FlightAware Approximate
Wed 05:46:00 AM 36.9759 149.6600 85° East  Level FlightAware Approximate
Wed 05:47:00 AM 36.9890 149.8431 85° East  Level FlightAware Approximate
Wed 05:48:00 AM 37.0063 150.0251 73° East  Level FlightAware Approximate
Wed 05:49:00 AM 37.0498 150.2008 73° East  Level FlightAware Approximate
Wed 05:50:00 AM 37.0931 150.3767 73° East  Level FlightAware Approximate
Wed 05:51:00 AM 37.1361 150.5527 73° East  Level FlightAware Approximate
Wed 05:52:00 AM 37.1789 150.7290 73° East  Level FlightAware Approximate
Wed 05:53:00 AM 37.2214 150.9055 73° East  Level FlightAware Approximate
Wed 05:54:00 AM 37.2636 151.0822 73° East  Level FlightAware Approximate
Wed 05:55:00 AM 37.3056 151.2590 73° East  Level FlightAware Approximate
Wed 05:56:00 AM 37.3473 151.4361 73° East  Level FlightAware Approximate
Wed 05:57:00 AM 37.3888 151.6133 74° East  Level FlightAware Approximate
Wed 05:58:00 AM 37.4300 151.7908 74° East  Level FlightAware Approximate
Wed 05:59:00 AM 37.4709 151.9684 74° East  Level FlightAware Approximate
Wed 06:00:00 AM 37.5115 152.1463 74° East  Level FlightAware Approximate
Wed 06:01:00 AM 37.5518 152.3244 74° East  Level FlightAware Approximate
Wed 06:02:00 AM 37.5918 152.5026 74° East  Level FlightAware Approximate
Wed 06:03:00 AM 37.6315 152.6811 74° East  Level FlightAware Approximate
Wed 06:04:00 AM 37.6710 152.8597 74° East  Level FlightAware Approximate
Wed 06:05:00 AM 37.7103 153.0385 74° East  Level FlightAware Approximate
Wed 06:06:00 AM 37.7492 153.2175 75° East  Level FlightAware Approximate
Wed 06:07:00 AM 37.7879 153.3967 75° East  Level FlightAware Approximate
Wed 06:08:00 AM 37.8263 153.5761 75° East  Level FlightAware Approximate
Wed 06:09:00 AM 37.8645 153.7557 75° East  Level FlightAware Approximate
Wed 06:10:00 AM 37.9023 153.9355 75° East  Level FlightAware Approximate
Wed 06:11:00 AM 37.9399 154.1154 75° East  Level FlightAware Approximate
Wed 06:12:00 AM 37.9772 154.2956 75° East  Level FlightAware Approximate
Wed 06:13:00 AM 38.0143 154.4759 75° East  Level FlightAware Approximate
Wed 06:14:00 AM 38.0510 154.6564 75° East  Level FlightAware Approximate
Wed 06:15:00 AM 38.0875 154.8370 76° East  Level FlightAware Approximate
Wed 06:16:00 AM 38.1238 155.0179 76° East  Level FlightAware Approximate
Wed 06:17:00 AM 38.1597 155.1989 76° East  Level FlightAware Approximate
Wed 06:18:00 AM 38.1954 155.3801 76° East  Level FlightAware Approximate
Wed 06:19:00 AM 38.2307 155.5615 76° East  Level FlightAware Approximate
Wed 06:20:00 AM 38.2658 155.7431 76° East  Level FlightAware Approximate
Wed 06:21:00 AM 38.3007 155.9248 76° East  Level FlightAware Approximate
Wed 06:22:00 AM 38.3352 156.1067 76° East  Level FlightAware Approximate
Wed 06:23:00 AM 38.3695 156.2888 76° East  Level FlightAware Approximate
Wed 06:24:00 AM 38.4034 156.4711 77° East  Level FlightAware Approximate
Wed 06:25:00 AM 38.4371 156.6535 77° East  Level FlightAware Approximate
Wed 06:26:00 AM 38.4706 156.8361 77° East  Level FlightAware Approximate
Wed 06:27:00 AM 38.5037 157.0189 77° East  Level FlightAware Approximate
Wed 06:28:00 AM 38.5365 157.2018 77° East  Level FlightAware Approximate
Wed 06:29:00 AM 38.5691 157.3849 77° East  Level FlightAware Approximate
Wed 06:30:00 AM 38.6013 157.5682 77° East  Level FlightAware Approximate
Wed 06:31:00 AM 38.6333 157.7516 77° East  Level FlightAware Approximate
Wed 06:32:00 AM 38.6650 157.9352 77° East  Level FlightAware Approximate
Wed 06:33:00 AM 38.6964 158.1189 78° East  Level FlightAware Approximate
Wed 06:34:00 AM 38.7276 158.3029 78° East  Level FlightAware Approximate
Wed 06:35:00 AM 38.7584 158.4869 78° East  Level FlightAware Approximate
Wed 06:36:00 AM 38.7890 158.6712 78° East  Level FlightAware Approximate
Wed 06:37:00 AM 38.8192 158.8555 78° East  Level FlightAware Approximate
Wed 06:38:00 AM 38.8492 159.0401 78° East  Level FlightAware Approximate
Wed 06:39:00 AM 38.8789 159.2248 78° East  Level FlightAware Approximate
Wed 06:40:00 AM 38.9083 159.4097 78° East  Level FlightAware Approximate
Wed 06:41:00 AM 38.9374 159.5947 79° East  Level FlightAware Approximate
Wed 06:42:00 AM 38.9662 159.7798 79° East  Level FlightAware Approximate
Wed 06:43:00 AM 38.9947 159.9651 79° East  Level FlightAware Approximate
Wed 06:44:00 AM 39.0355 160.1465 73° East  Level FlightAware Approximate
Wed 06:45:00 AM 39.0789 160.3271 73° East  Level FlightAware Approximate
Wed 06:46:00 AM 39.1221 160.5080 73° East  Level FlightAware Approximate
Wed 06:47:00 AM 39.1651 160.6894 73° East  Level FlightAware Approximate
Wed 06:48:00 AM 39.2078 160.8710 73° East  Level FlightAware Approximate
Wed 06:49:00 AM 39.2502 161.0529 73° East  Level FlightAware Approximate
Wed 06:50:00 AM 39.2923 161.2350 73° East  Level FlightAware Approximate
Wed 06:51:00 AM 39.3342 161.4173 73° East  Level FlightAware Approximate
Wed 06:52:00 AM 39.3757 161.5998 74° East  Level FlightAware Approximate
Wed 06:53:00 AM 39.4183 161.7820 73° East  Level FlightAware Approximate
Wed 06:54:00 AM 39.4608 161.9644 73° East  Level FlightAware Approximate
Wed 06:55:00 AM 39.5031 162.1469 73° East  Level FlightAware Approximate
Wed 06:56:00 AM 39.5450 162.3297 73° East  Level FlightAware Approximate
Wed 06:57:00 AM 39.5867 162.5128 73° East  Level FlightAware Approximate
Wed 06:58:00 AM 39.6281 162.6960 74° East  Level FlightAware Approximate
Wed 06:59:00 AM 39.6692 162.8794 74° East  Level FlightAware Approximate
Wed 07:00:00 AM 39.7100 163.0631 74° East  Level FlightAware Approximate
Wed 07:01:00 AM 39.7506 163.2470 74° East  Level FlightAware Approximate
Wed 07:02:00 AM 39.7908 163.4311 74° East  Level FlightAware Approximate
Wed 07:03:00 AM 39.8307 163.6154 74° East  Level FlightAware Approximate
Wed 07:04:00 AM 39.8704 163.8000 74° East  Level FlightAware Approximate
Wed 07:05:00 AM 39.9098 163.9847 74° East  Level FlightAware Approximate
Wed 07:06:00 AM 39.9488 164.1697 75° East  Level FlightAware Approximate
Wed 07:07:00 AM 39.9876 164.3548 75° East  Level FlightAware Approximate
Wed 07:08:00 AM 40.0261 164.5402 75° East  Level FlightAware Approximate
Wed 07:09:00 AM 40.0643 164.7258 75° East  Level FlightAware Approximate
Wed 07:10:00 AM 40.1021 164.9116 75° East  Level FlightAware Approximate
Wed 07:11:00 AM 40.1387 165.0979 76° East  Level FlightAware Approximate
Wed 07:12:00 AM 40.1743 165.2847 76° East  Level FlightAware Approximate
Wed 07:13:00 AM 40.2096 165.4716 76° East  Level FlightAware Approximate
Wed 07:14:00 AM 40.2446 165.6588 76° East  Level FlightAware Approximate
Wed 07:15:00 AM 40.2793 165.8461 76° East  Level FlightAware Approximate
Wed 07:16:00 AM 40.3137 166.0337 76° East  Level FlightAware Approximate
Wed 07:17:00 AM 40.3478 166.2214 77° East  Level FlightAware Approximate
Wed 07:17:29 AM 40.5333 167.2167 77° East 564 649 39,000  Level Oakland Oceanic (ODAPS)
Wed 07:18:00 AM 40.3833 166.4088 76° East  Level FlightAware Approximate
Wed 07:19:00 AM 40.4185 166.5963 76° East  Level FlightAware Approximate
Wed 07:20:00 AM 40.4535 166.7841 76° East  Level FlightAware Approximate
Wed 07:21:00 AM 40.4882 166.9720 76° East  Level FlightAware Approximate
Wed 07:22:00 AM 40.5225 167.1602 76° East  Level FlightAware Approximate
Wed 07:23:00 AM 40.7415 168.4047 77° East 564 649 39,000  Level FlightAware Transoceanic
Wed 07:24:00 AM 40.7750 168.6035 78° East 564 649 39,000  Level FlightAware Transoceanic
Wed 07:25:00 AM 40.8082 168.8024 78° East 564 649 39,000  Level FlightAware Transoceanic
Wed 07:26:00 AM 40.8410 169.0015 78° East 564 649 39,000  Level FlightAware Transoceanic
Wed 07:27:00 AM 40.8735 169.2008 78° East 564 649 39,000  Level FlightAware Transoceanic
Wed 07:28:00 AM 40.9057 169.4003 78° East 564 649 39,000  Level FlightAware Transoceanic
Wed 07:29:00 AM 40.9374 169.6000 78° East 564 649 39,000  Level FlightAware Transoceanic
Wed 07:30:00 AM 40.9689 169.7999 78° East 564 649 39,000  Level FlightAware Transoceanic
Wed 07:31:00 AM 41.0000 170.0000 65° Northeast 564 649 39,000  Level FlightAware Transoceanic
Wed 07:31:12 AM 41.0167 170.0333 65° Northeast 578 665 39,000  Level Oakland Oceanic (ODAPS)
Wed 07:31:48 AM 41.0500 170.1500 65° Northeast 577 664 39,000  Level Oakland Oceanic (ODAPS)
Wed 07:32:00 AM 41.0682 170.1905 65° Northeast 564 649 39,000  Level FlightAware Transoceanic
Wed 07:32:19 AM 41.0667 170.2000 65° Northeast 577 664 39,000  Level Oakland Oceanic (ODAPS)
Wed 07:33:00 AM 41.1362 170.3813 65° Northeast 564 649 39,000  Level FlightAware Transoceanic
Wed 07:34:00 AM 41.2038 170.5726 65° Northeast 564 649 39,000  Level FlightAware Transoceanic
Wed 07:35:00 AM 41.2711 170.7642 65° Northeast 564 649 39,000  Level FlightAware Transoceanic
Wed 07:36:00 AM 41.3381 170.9563 65° Northeast 564 649 39,000  Level FlightAware Transoceanic
Wed 07:37:00 AM 41.4191 171.1785 65° Northeast 578 665 39,000  Level FlightAware Transoceanic
Wed 07:38:00 AM 41.4696 171.3500 65° Northeast 577 664 39,000  Level FlightAware Transoceanic
Wed 07:39:00 AM 41.5357 171.5430 66° East 577 664 39,000  Level FlightAware Transoceanic
Wed 07:40:00 AM 41.6014 171.7364 66° East 577 664 39,000  Level FlightAware Transoceanic
Wed 07:41:00 AM 41.6668 171.9303 66° East 577 664 39,000  Level FlightAware Transoceanic
Wed 07:42:00 AM 41.7319 172.1245 66° East 577 664 39,000  Level FlightAware Transoceanic
Wed 07:43:00 AM 41.7966 172.3191 66° East 577 664 39,000  Level FlightAware Transoceanic
Wed 07:44:00 AM 41.8610 172.5141 66° East 577 664 39,000  Level FlightAware Transoceanic
Wed 07:45:00 AM 41.9251 172.7095 66° East 577 664 39,000  Level FlightAware Transoceanic
Wed 07:45:03 AM 41.9500 172.7500 66° East 589 678 39,000  Level Oakland Oceanic (ODAPS)
Wed 07:46:00 AM 41.9888 172.9053 66° East 577 664 39,000  Level FlightAware Transoceanic
Wed 07:47:00 AM 42.0522 173.1015 67° East 577 664 39,000  Level FlightAware Transoceanic
Wed 07:48:00 AM 42.1153 173.2980 67° East 577 664 39,000  Level FlightAware Transoceanic
Wed 07:49:00 AM 42.1781 173.4950 67° East 577 664 39,000  Level FlightAware Transoceanic
Wed 07:50:00 AM 42.2405 173.6924 67° East 577 664 39,000  Level FlightAware Transoceanic
Wed 07:51:00 AM 42.3230 173.9244 67° East 589 678 39,000  Level FlightAware Transoceanic
Wed 07:52:00 AM 42.3839 174.1215 67° East 589 678 39,000  Level FlightAware Transoceanic
Wed 07:53:00 AM 42.4446 174.3190 67° East 589 678 39,000  Level FlightAware Transoceanic
Wed 07:54:00 AM 42.5049 174.5168 68° East 589 678 39,000  Level FlightAware Transoceanic
Wed 07:55:00 AM 42.5649 174.7151 68° East 589 678 39,000  Level FlightAware Transoceanic
Wed 07:56:00 AM 42.6245 174.9137 68° East 589 678 39,000  Level FlightAware Transoceanic
Wed 07:57:00 AM 42.6838 175.1126 68° East 589 678 39,000  Level FlightAware Transoceanic
Wed 07:58:00 AM 42.7427 175.3120 68° East 589 678 39,000  Level FlightAware Transoceanic
Wed 07:58:55 AM 42.8167 175.5833 68° East 595 685 39,000  Level Oakland Oceanic (ODAPS)
Wed 07:59:00 AM 42.8013 175.5117 68° East 589 678 39,000  Level FlightAware Transoceanic
Wed 08:00:00 AM 42.8596 175.7119 68° East 589 678 39,000  Level FlightAware Transoceanic
Wed 08:01:00 AM 42.9175 175.9124 69° East 589 678 39,000  Level FlightAware Transoceanic
Wed 08:02:00 AM 42.9750 176.1132 69° East 589 678 39,000  Level FlightAware Transoceanic
Wed 08:03:00 AM 43.0322 176.3145 69° East 589 678 39,000  Level FlightAware Transoceanic
Wed 08:04:00 AM 43.0891 176.5161 69° East 589 678 39,000  Level FlightAware Transoceanic
Wed 08:05:00 AM 43.1720 176.8275 69° East 595 685 39,000  Level FlightAware Transoceanic
Wed 08:06:00 AM 43.2299 177.0363 69° East 595 685 39,000  Level FlightAware Transoceanic
Wed 08:07:00 AM 43.2874 177.2455 69° East 595 685 39,000  Level FlightAware Transoceanic
Wed 08:08:00 AM 43.3446 177.4550 70° East 595 685 39,000  Level FlightAware Transoceanic
Wed 08:09:00 AM 43.4013 177.6650 70° East 595 685 39,000  Level FlightAware Transoceanic
Wed 08:10:00 AM 43.4577 177.8753 70° East 595 685 39,000  Level FlightAware Transoceanic
Wed 08:11:00 AM 43.5137 178.0860 70° East 595 685 39,000  Level FlightAware Transoceanic
Wed 08:12:00 AM 43.5693 178.2971 70° East 595 685 39,000  Level FlightAware Transoceanic
Wed 08:12:48 AM 43.6333 178.5167 71° East 599 689 39,000  Level Oakland Oceanic (ODAPS)
Wed 08:13:00 AM 43.6245 178.5087 70° East 595 685 39,000  Level FlightAware Transoceanic
Wed 08:14:00 AM 43.6794 178.7206 70° East 595 685 39,000  Level FlightAware Transoceanic
Wed 08:15:00 AM 43.7338 178.9328 71° East 595 685 39,000  Level FlightAware Transoceanic
Wed 08:16:00 AM 43.7878 179.1455 71° East 595 685 39,000  Level FlightAware Transoceanic
Wed 08:16:20 AM 43.8167 179.2833 70° East 600 690 39,000  Level Oakland Oceanic (ODAPS)
Wed 08:17:00 AM 43.8415 179.3586 71° East 595 685 39,000  Level FlightAware Transoceanic
Wed 08:18:00 AM 43.8947 179.5720 71° East 595 685 39,000  Level FlightAware Transoceanic
Wed 08:19:00 AM 43.9488 179.7870 71° East 599 689 39,000  Level FlightAware Transoceanic
Wed 08:19:41 AM 44.0000 180.0000 71° East 598 688 39,000  Level Oakland Oceanic (ODAPS)
Wed 08:20:00 AM 44.0000 -180.0000 71° East 599 689 39,000  Level FlightAware Transoceanic
Wed 08:21:00 AM 44.0537 -179.7857 71° East 599 689 39,000  Level FlightAware Transoceanic
Wed 08:22:00 AM 44.1047 -179.5804 71° East 600 690 39,000  Level FlightAware Transoceanic
Wed 08:23:00 AM 44.1565 -179.3700 71° East 600 690 39,000  Level FlightAware Transoceanic
Wed 08:24:00 AM 44.2079 -179.1593 71° East 600 690 39,000  Level FlightAware Transoceanic
Wed 08:25:00 AM 44.2705 -178.9001 71° East 598 688 39,000  Level FlightAware Transoceanic
Wed 08:26:00 AM 44.3233 -178.6790 72° East 598 688 39,000  Level FlightAware Transoceanic
Wed 08:26:40 AM 44.3667 -178.4667 72° East 598 688 39,000  Level Oakland Oceanic (ODAPS)
Wed 08:27:00 AM 44.3757 -178.4574 72° East 598 688 39,000  Level FlightAware Transoceanic
Wed 08:28:00 AM 44.4276 -178.2354 72° East 598 688 39,000  Level FlightAware Transoceanic
Wed 08:29:00 AM 44.4792 -178.0131 72° East 598 688 39,000  Level FlightAware Transoceanic
Wed 08:30:00 AM 44.5303 -177.7903 72° East 598 688 39,000  Level FlightAware Transoceanic
Wed 08:31:00 AM 44.5809 -177.5672 72° East 598 688 39,000  Level FlightAware Transoceanic
Wed 08:32:00 AM 44.6311 -177.3436 73° East 598 688 39,000  Level FlightAware Transoceanic
Wed 08:33:00 AM 44.7140 -176.9446 73° East 598 688 39,000  Level FlightAware Transoceanic
Wed 08:34:00 AM 44.7620 -176.7257 73° East 598 688 39,000  Level FlightAware Transoceanic
Wed 08:35:00 AM 44.8095 -176.5064 73° East 598 688 39,000  Level FlightAware Transoceanic
Wed 08:36:00 AM 44.8566 -176.2867 73° East 598 688 39,000  Level FlightAware Transoceanic
Wed 08:37:00 AM 44.9033 -176.0668 73° East 598 688 39,000  Level FlightAware Transoceanic
Wed 08:38:00 AM 44.9496 -175.8464 74° East 598 688 39,000  Level FlightAware Transoceanic
Wed 08:39:00 AM 44.9955 -175.6257 74° East 598 688 39,000  Level FlightAware Transoceanic
Wed 08:40:00 AM 45.0409 -175.4046 74° East 598 688 39,000  Level FlightAware Transoceanic
Wed 08:41:00 AM 45.0859 -175.1832 74° East 598 688 39,000  Level FlightAware Transoceanic
Wed 08:42:00 AM 45.1305 -174.9615 74° East 598 688 39,000  Level FlightAware Transoceanic
Wed 08:43:00 AM 45.1746 -174.7394 74° East 598 688 39,000  Level FlightAware Transoceanic
Wed 08:43:32 AM 45.0500 -175.3833 74° East 596 686 39,000  Level Oakland Oceanic (ODAPS)
Wed 08:44:00 AM 45.2183 -174.5170 74° East 598 688 39,000  Level FlightAware Transoceanic
Wed 08:45:00 AM 45.2616 -174.2942 75° East 598 688 39,000  Level FlightAware Transoceanic
Wed 08:46:00 AM 45.3044 -174.0711 75° East 598 688 39,000  Level FlightAware Transoceanic
Wed 08:47:00 AM 45.3468 -173.8476 75° East 598 688 39,000  Level FlightAware Transoceanic
Wed 08:48:00 AM 45.3888 -173.6238 75° East 598 688 39,000  Level FlightAware Transoceanic
Wed 08:49:00 AM 45.4358 -173.3861 75° East 596 686 39,000  Level FlightAware Transoceanic
Wed 08:50:00 AM 45.4765 -173.1625 76° East 596 686 39,000  Level FlightAware Transoceanic
Wed 08:51:00 AM 45.5168 -172.9386 76° East 596 686 39,000  Level FlightAware Transoceanic
Wed 08:52:00 AM 45.5566 -172.7144 76° East 596 686 39,000  Level FlightAware Transoceanic
Wed 08:53:00 AM 45.5960 -172.4899 76° East 596 686 39,000  Level FlightAware Transoceanic
Wed 08:54:00 AM 45.6350 -172.2650 76° East 596 686 39,000  Level FlightAware Transoceanic
Wed 08:54:24 AM 45.6333 -172.2500 76° East 590 679 39,000  Level Oakland Oceanic (ODAPS)
Wed 08:55:00 AM 45.6735 -172.0399 76° East 596 686 39,000  Level FlightAware Transoceanic
Wed 08:56:00 AM 45.7115 -171.8144 76° East 596 686 39,000  Level FlightAware Transoceanic
Wed 08:57:00 AM 45.7492 -171.5887 77° East 596 686 39,000  Level FlightAware Transoceanic
Wed 08:58:00 AM 45.7863 -171.3626 77° East 596 686 39,000  Level FlightAware Transoceanic
Wed 08:59:00 AM 45.8231 -171.1362 77° East 596 686 39,000  Level FlightAware Transoceanic
Wed 09:00:00 AM 45.8586 -170.9035 77° East 590 679 39,000  Level FlightAware Transoceanic
Wed 09:01:00 AM 45.8946 -170.6781 77° East 590 679 39,000  Level FlightAware Transoceanic
Wed 09:02:00 AM 45.9302 -170.4523 77° East 590 679 39,000  Level FlightAware Transoceanic
Wed 09:03:00 AM 45.9653 -170.2263 77° East 590 679 39,000  Level FlightAware Transoceanic
Wed 09:04:00 AM 46.0000 -170.0000 86° East 590 679 39,000 682 Level FlightAware Transoceanic
Wed 09:04:28 AM 46.0000 -170.0000 86° East 570 656 40,000  Climbing Oakland Oceanic (ODAPS)
Wed 09:05:00 AM 46.0095 -169.7783 87° East 590 679 39,000 -652 Descending FlightAware Transoceanic
Wed 09:06:00 AM 46.0185 -169.5566 87° East 590 679 39,000  Level FlightAware Transoceanic
Wed 09:07:00 AM 46.0271 -169.3347 87° East 590 679 39,000  Level FlightAware Transoceanic
Wed 09:08:00 AM 46.0353 -169.1129 87° East 590 679 39,000 789 Level FlightAware Transoceanic
Wed 09:08:16 AM 46.0333 -169.1333 87° East 573 659 40,000  Climbing Oakland Oceanic (ODAPS)
Wed 09:09:00 AM 46.0431 -168.8909 87° East 590 679 39,000  Descending FlightAware Transoceanic
Wed 09:10:00 AM 46.0514 -168.6386 87° East 570 656 40,000 500 Climbing FlightAware Transoceanic
Wed 09:11:00 AM 46.0584 -168.4115 88° East 570 656 40,000  Level FlightAware Transoceanic
Wed 09:12:00 AM 46.0649 -168.1843 88° East 570 656 40,000  Level FlightAware Transoceanic
Wed 09:13:00 AM 46.0710 -167.9571 88° East 570 656 40,000  Level FlightAware Transoceanic
Wed 09:14:00 AM 46.0747 -167.7644 88° East 573 659 40,000  Level FlightAware Transoceanic
Wed 09:15:00 AM 46.0801 -167.5361 88° East 573 659 40,000  Level FlightAware Transoceanic
Wed 09:16:00 AM 46.0849 -167.3077 88° East 573 659 40,000  Level FlightAware Transoceanic
Wed 09:17:00 AM 46.0893 -167.0793 88° East 573 659 40,000  Level FlightAware Transoceanic
Wed 09:18:00 AM 46.0933 -166.8508 89° East 573 659 40,000  Level FlightAware Transoceanic
Wed 09:19:00 AM 46.0968 -166.6224 89° East 573 659 40,000  Level FlightAware Transoceanic
Wed 09:20:00 AM 46.0998 -166.3939 89° East 573 659 40,000  Level FlightAware Transoceanic
Wed 09:21:00 AM 46.1024 -166.1653 89° East 573 659 40,000  Level FlightAware Transoceanic
Wed 09:22:00 AM 46.1045 -165.9368 89° East 573 659 40,000  Level FlightAware Transoceanic
Wed 09:22:07 AM 46.1000 -165.9333 89° East 577 664 40,000  Level Oakland Oceanic (ODAPS)
Wed 09:23:00 AM 46.1062 -165.7082 89° East 573 659 40,000  Level FlightAware Transoceanic
Wed 09:24:00 AM 46.1074 -165.4796 90° East 573 659 40,000  Level FlightAware Transoceanic
Wed 09:25:00 AM 46.1082 -165.2511 90° East 573 659 40,000  Level FlightAware Transoceanic
Wed 09:26:00 AM 46.1085 -165.0225 90° East 573 659 40,000  Level FlightAware Transoceanic
Wed 09:27:00 AM 46.1083 -164.7939 90° East 573 659 40,000  Level FlightAware Transoceanic
Wed 09:28:00 AM 46.1042 -164.5627 90° East 577 664 40,000  Level FlightAware Transoceanic
Wed 09:29:00 AM 46.1033 -164.3343 90° East 577 664 40,000  Level FlightAware Transoceanic
Wed 09:30:00 AM 46.1020 -164.1059 91° East 577 664 40,000  Level FlightAware Transoceanic
Wed 09:31:00 AM 46.1002 -163.8774 91° East 577 664 40,000  Level FlightAware Transoceanic
Wed 09:32:00 AM 46.0979 -163.6490 91° East 577 664 40,000  Level FlightAware Transoceanic
Wed 09:33:00 AM 46.0952 -163.4207 91° East 577 664 40,000  Level FlightAware Transoceanic
Wed 09:34:00 AM 46.0920 -163.1923 91° East 577 664 40,000  Level FlightAware Transoceanic
Wed 09:35:00 AM 46.0884 -162.9640 91° East 577 664 40,000  Level FlightAware Transoceanic
Wed 09:35:59 AM 46.0833 -162.7333 92° East 566 651 40,000  Level Oakland Oceanic (ODAPS)
Wed 09:36:00 AM 46.0843 -162.7357 92° East 577 664 40,000  Level FlightAware Transoceanic
Wed 09:37:00 AM 46.0798 -162.5074 92° East 577 664 40,000  Level FlightAware Transoceanic
Wed 09:38:00 AM 46.0748 -162.2792 92° East 577 664 40,000  Level FlightAware Transoceanic
Wed 09:39:00 AM 46.0694 -162.0510 92° East 577 664 40,000  Level FlightAware Transoceanic
Wed 09:40:00 AM 46.0635 -161.8229 92° East 577 664 40,000  Level FlightAware Transoceanic
Wed 09:41:00 AM 46.0571 -161.5948 92° East 577 664 40,000  Level FlightAware Transoceanic
Wed 09:42:00 AM 46.0498 -161.3656 93° East 566 651 40,000  Level FlightAware Transoceanic
Wed 09:43:00 AM 46.0426 -161.1379 93° East 566 651 40,000  Level FlightAware Transoceanic
Wed 09:44:00 AM 46.0350 -160.9102 93° East 566 651 40,000  Level FlightAware Transoceanic
Wed 09:45:00 AM 46.0269 -160.6825 93° East 566 651 40,000  Level FlightAware Transoceanic
Wed 09:46:00 AM 46.0184 -160.4549 93° East 566 651 40,000  Level FlightAware Transoceanic
Wed 09:47:00 AM 46.0094 -160.2274 93° East 566 651 40,000  Level FlightAware Transoceanic
Wed 09:48:00 AM 46.0000 -160.0000 102° East 566 651 40,000  Level FlightAware Transoceanic
Wed 09:48:15 AM 46.0000 -160.0000 102° East 559 643 40,000  Level Oakland Oceanic (ODAPS)
Wed 09:49:00 AM 45.9681 -159.7893 102° East 566 651 40,000  Level FlightAware Transoceanic
Wed 09:49:52 AM 45.9500 -159.6333 103° East 559 643 40,000  Level Oakland Oceanic (ODAPS)
Wed 09:50:00 AM 45.9358 -159.5788 103° East 566 651 40,000  Level FlightAware Transoceanic
Wed 09:51:00 AM 45.9031 -159.3686 103° East 566 651 40,000  Level FlightAware Transoceanic
Wed 09:52:00 AM 45.8701 -159.1586 103° East 566 651 40,000  Level FlightAware Transoceanic
Wed 09:53:00 AM 45.8367 -158.9489 103° East 566 651 40,000  Level FlightAware Transoceanic
Wed 09:54:00 AM 45.7941 -158.6860 103° East 559 643 40,000  Level FlightAware Transoceanic
Wed 09:55:00 AM 45.7584 -158.4679 103° East 559 643 40,000  Level FlightAware Transoceanic
Wed 09:56:00 AM 45.7376 -158.3123 103° East 559 643 40,000  Level FlightAware Transoceanic
Wed 09:57:00 AM 45.7007 -158.0932 104° East 559 643 40,000  Level FlightAware Transoceanic
Wed 09:58:00 AM 45.6634 -157.8743 104° East 559 643 40,000  Level FlightAware Transoceanic
Wed 09:59:00 AM 45.6257 -157.6557 104° East 559 643 40,000  Level FlightAware Transoceanic
Wed 10:00:00 AM 45.5876 -157.4374 104° East 559 643 40,000  Level FlightAware Transoceanic
Wed 10:01:00 AM 45.5490 -157.2194 104° East 559 643 40,000  Level FlightAware Transoceanic
Wed 10:02:00 AM 45.5101 -157.0017 104° East 559 643 40,000  Level FlightAware Transoceanic
Wed 10:03:00 AM 45.4707 -156.7843 105° East 559 643 40,000  Level FlightAware Transoceanic
Wed 10:03:43 AM 45.4500 -156.6833 105° East 555 639 40,000  Level Oakland Oceanic (ODAPS)
Wed 10:04:00 AM 45.4309 -156.5672 105° East 559 643 40,000  Level FlightAware Transoceanic
Wed 10:05:00 AM 45.3907 -156.3504 105° East 559 643 40,000  Level FlightAware Transoceanic
Wed 10:06:00 AM 45.3501 -156.1339 105° East 559 643 40,000  Level FlightAware Transoceanic
Wed 10:07:00 AM 45.3091 -155.9178 105° East 559 643 40,000  Level FlightAware Transoceanic
Wed 10:08:00 AM 45.2677 -155.7019 105° East 559 643 40,000  Level FlightAware Transoceanic
Wed 10:09:00 AM 45.2494 -155.6174 105° East 555 639 40,000  Level FlightAware Transoceanic
Wed 10:10:00 AM 45.2081 -155.4051 106° East 555 639 40,000  Level FlightAware Transoceanic
Wed 10:11:00 AM 45.1664 -155.1932 106° East 555 639 40,000  Level FlightAware Transoceanic
Wed 10:12:00 AM 45.1244 -154.9815 106° East 555 639 40,000  Level FlightAware Transoceanic
Wed 10:13:00 AM 45.0819 -154.7702 106° East 555 639 40,000  Level FlightAware Transoceanic
Wed 10:14:00 AM 45.0390 -154.5591 106° East 555 639 40,000  Level FlightAware Transoceanic
Wed 10:15:00 AM 44.9958 -154.3484 106° East 555 639 40,000  Level FlightAware Transoceanic
Wed 10:16:00 AM 44.9521 -154.1380 106° East 555 639 40,000  Level FlightAware Transoceanic
Wed 10:17:00 AM 44.9081 -153.9280 107° East 555 639 40,000  Level FlightAware Transoceanic
Wed 10:17:36 AM 44.8833 -153.8333 107° East 535 616 40,000  Level Oakland Oceanic (ODAPS)
Wed 10:18:00 AM 44.8637 -153.7182 107° East 555 639 40,000  Level FlightAware Transoceanic
Wed 10:19:00 AM 44.8189 -153.5088 107° East 555 639 40,000  Level FlightAware Transoceanic
Wed 10:20:00 AM 44.7737 -153.2997 107° East 555 639 40,000  Level FlightAware Transoceanic
Wed 10:21:00 AM 44.7282 -153.0910 107° East 555 639 40,000  Level FlightAware Transoceanic
Wed 10:22:00 AM 44.6823 -152.8825 107° East 555 639 40,000  Level FlightAware Transoceanic
Wed 10:23:00 AM 44.6319 -152.6712 107° East 535 616 40,000  Level FlightAware Transoceanic
Wed 10:24:00 AM 44.5888 -152.4785 107° East 535 616 40,000  Level FlightAware Transoceanic
Wed 10:25:00 AM 44.5454 -152.2861 108° East 535 616 40,000  Level FlightAware Transoceanic
Wed 10:26:00 AM 44.5017 -152.0940 108° East 535 616 40,000  Level FlightAware Transoceanic
Wed 10:27:00 AM 44.4577 -151.9022 108° East 535 616 40,000  Level FlightAware Transoceanic
Wed 10:28:00 AM 44.4133 -151.7106 108° East 535 616 40,000  Level FlightAware Transoceanic
Wed 10:29:00 AM 44.3687 -151.5194 108° East 535 616 40,000  Level FlightAware Transoceanic
Wed 10:30:00 AM 44.3237 -151.3284 108° East 535 616 40,000  Level FlightAware Transoceanic
Wed 10:31:00 AM 44.2784 -151.1378 108° East 535 616 40,000  Level FlightAware Transoceanic
Wed 10:31:28 AM 44.2667 -151.1000 108° East 530 610 40,000  Level Oakland Oceanic (ODAPS)
Wed 10:32:00 AM 44.2328 -150.9474 109° East 535 616 40,000  Level FlightAware Transoceanic
Wed 10:33:00 AM 44.1869 -150.7573 109° East 535 616 40,000  Level FlightAware Transoceanic
Wed 10:34:00 AM 44.1406 -150.5675 109° East 535 616 40,000  Level FlightAware Transoceanic
Wed 10:35:00 AM 44.0941 -150.3781 109° East 535 616 40,000  Level FlightAware Transoceanic
Wed 10:36:00 AM 44.0472 -150.1889 109° East 535 616 40,000  Level FlightAware Transoceanic
Wed 10:37:00 AM 44.0000 -150.0000 94° East 530 610 40,000  Level FlightAware Transoceanic
Wed 10:37:12 AM 44.0000 -150.0000 94° East 519 597 40,000  Level Oakland Oceanic (ODAPS)
Wed 10:38:00 AM 43.9895 -149.8122 95° East 530 610 40,000  Level FlightAware Transoceanic
Wed 10:39:00 AM 43.9787 -149.6245 95° East 530 610 40,000  Level FlightAware Transoceanic
Wed 10:40:00 AM 43.9675 -149.4368 95° East 530 610 40,000  Level FlightAware Transoceanic
Wed 10:41:00 AM 43.9561 -149.2492 95° East 530 610 40,000  Level FlightAware Transoceanic
Wed 10:42:00 AM 43.9444 -149.0617 95° East 530 610 40,000  Level FlightAware Transoceanic
Wed 10:43:00 AM 43.9280 -148.8081 95° East 519 597 40,000  Level FlightAware Transoceanic
Wed 10:44:00 AM 43.9148 -148.6098 95° East 519 597 40,000  Level FlightAware Transoceanic
Wed 10:45:00 AM 43.9013 -148.4115 95° East 519 597 40,000  Level FlightAware Transoceanic
Wed 10:45:19 AM 43.9000 -148.3833 96° East 509 586 40,000  Level Oakland Oceanic (ODAPS)
Wed 10:46:00 AM 43.8874 -148.2133 96° East 519 597 40,000  Level FlightAware Transoceanic
Wed 10:47:00 AM 43.8731 -148.0152 96° East 519 597 40,000  Level FlightAware Transoceanic
Wed 10:48:00 AM 43.8586 -147.8172 96° East 519 597 40,000  Level FlightAware Transoceanic
Wed 10:49:00 AM 43.8437 -147.6193 96° East 519 597 40,000  Level FlightAware Transoceanic
Wed 10:50:00 AM 43.8284 -147.4216 96° East 519 597 40,000  Level FlightAware Transoceanic
Wed 10:51:00 AM 43.8136 -147.2266 96° East 509 586 40,000  Level FlightAware Transoceanic
Wed 10:52:00 AM 43.7981 -147.0341 96° East 509 586 40,000  Level FlightAware Transoceanic
Wed 10:53:00 AM 43.7822 -146.8418 97° East 509 586 40,000  Level FlightAware Transoceanic
Wed 10:54:00 AM 43.7661 -146.6495 97° East 509 586 40,000  Level FlightAware Transoceanic
Wed 10:55:00 AM 43.7496 -146.4573 97° East 509 586 40,000  Level FlightAware Transoceanic
Wed 10:56:00 AM 43.7327 -146.2653 97° East 509 586 40,000  Level FlightAware Transoceanic
Wed 10:57:00 AM 43.7156 -146.0734 97° East 509 586 40,000  Level FlightAware Transoceanic
Wed 10:58:00 AM 43.6982 -145.8815 97° East 509 586 40,000  Level FlightAware Transoceanic
Wed 10:59:00 AM 43.6804 -145.6898 97° East 509 586 40,000  Level FlightAware Transoceanic
Wed 10:59:11 AM 43.6833 -145.6833 97° East 505 581 40,000  Level Oakland Oceanic (ODAPS)
Wed 11:00:00 AM 43.6623 -145.4982 98° East 509 586 40,000  Level FlightAware Transoceanic
Wed 11:01:00 AM 43.6438 -145.3067 98° East 509 586 40,000  Level FlightAware Transoceanic
Wed 11:02:00 AM 43.6251 -145.1154 98° East 509 586 40,000  Level FlightAware Transoceanic
Wed 11:03:00 AM 43.6060 -144.9241 98° East 509 586 40,000  Level FlightAware Transoceanic
Wed 11:04:00 AM 43.5867 -144.7330 98° East 509 586 40,000  Level FlightAware Transoceanic
Wed 11:05:00 AM 43.5693 -144.5368 98° East 505 581 40,000  Level FlightAware Transoceanic
Wed 11:06:00 AM 43.5492 -144.3461 98° East 505 581 40,000  Level FlightAware Transoceanic
Wed 11:07:00 AM 43.5287 -144.1556 98° East 505 581 40,000  Level FlightAware Transoceanic
Wed 11:08:00 AM 43.5080 -143.9652 99° East 505 581 40,000  Level FlightAware Transoceanic
Wed 11:09:00 AM 43.4869 -143.7749 99° East 505 581 40,000  Level FlightAware Transoceanic
Wed 11:10:00 AM 43.4655 -143.5848 99° East 505 581 40,000  Level FlightAware Transoceanic
Wed 11:11:00 AM 43.4438 -143.3948 99° East 505 581 40,000  Level FlightAware Transoceanic
Wed 11:12:00 AM 43.4218 -143.2050 99° East 505 581 40,000  Level FlightAware Transoceanic
Wed 11:13:00 AM 43.3995 -143.0152 99° East 505 581 40,000  Level FlightAware Transoceanic
Wed 11:13:04 AM 43.4167 -143.1167 99° East 483 556 40,000  Level Oakland Oceanic (ODAPS)
Wed 11:14:00 AM 43.3769 -142.8257 99° East 505 581 40,000  Level FlightAware Transoceanic
Wed 11:15:00 AM 43.3539 -142.6362 100° East 505 581 40,000  Level FlightAware Transoceanic
Wed 11:16:00 AM 43.3306 -142.4469 100° East 505 581 40,000  Level FlightAware Transoceanic
Wed 11:17:00 AM 43.3071 -142.2578 100° East 505 581 40,000  Level FlightAware Transoceanic
Wed 11:18:00 AM 43.2832 -142.0688 100° East 505 581 40,000  Level FlightAware Transoceanic
Wed 11:19:00 AM 43.2793 -142.0119 100° East 483 556 40,000  Level FlightAware Transoceanic
Wed 11:20:00 AM 43.2553 -141.8282 100° East 483 556 40,000  Level FlightAware Transoceanic
Wed 11:21:00 AM 43.2311 -141.6447 100° East 483 556 40,000  Level FlightAware Transoceanic
Wed 11:22:00 AM 43.2066 -141.4613 100° East 483 556 40,000  Level FlightAware Transoceanic
Wed 11:23:00 AM 43.1818 -141.2782 101° East 483 556 40,000  Level FlightAware Transoceanic
Wed 11:24:00 AM 43.1567 -141.0951 101° East 483 556 40,000  Level FlightAware Transoceanic
Wed 11:25:00 AM 43.1313 -140.9122 101° East 483 556 40,000  Level FlightAware Transoceanic
Wed 11:26:00 AM 43.1056 -140.7294 101° East 483 556 40,000  Level FlightAware Transoceanic
Wed 11:26:56 AM 43.0833 -140.6333 100° East 488 562 40,000  Level Oakland Oceanic (ODAPS)
Wed 11:27:00 AM 43.0797 -140.5468 101° East 483 556 40,000  Level FlightAware Transoceanic
Wed 11:28:00 AM 43.0534 -140.3644 101° East 483 556 40,000  Level FlightAware Transoceanic
Wed 11:29:00 AM 43.0268 -140.1821 101° East 483 556 40,000  Level FlightAware Transoceanic
Wed 11:30:00 AM 43.0000 -140.0000 108° East 483 556 40,000  Level FlightAware Transoceanic
Wed 11:30:27 AM 43.0000 -140.0000 108° East 483 556 40,000  Level Oakland Oceanic (ODAPS)
Wed 11:31:00 AM 42.9580 -139.8287 109° East 483 556 40,000  Level FlightAware Transoceanic
Wed 11:32:00 AM 42.9158 -139.6577 109° East 483 556 40,000  Level FlightAware Transoceanic
Wed 11:33:00 AM 42.8733 -139.4868 109° East 488 562 40,000  Level FlightAware Transoceanic
Wed 11:34:00 AM 42.8306 -139.3163 109° East 488 562 40,000  Level FlightAware Transoceanic
Wed 11:35:00 AM 42.7876 -139.1459 109° East 488 562 40,000  Level FlightAware Transoceanic
Wed 11:36:00 AM 42.7400 -138.9588 109° East 483 556 40,000  Level FlightAware Transoceanic
Wed 11:37:00 AM 42.6958 -138.7861 109° East 483 556 40,000  Level FlightAware Transoceanic
Wed 11:38:00 AM 42.6513 -138.6137 109° East 483 556 40,000  Level FlightAware Transoceanic
Wed 11:39:00 AM 42.6065 -138.4415 110° East 483 556 40,000  Level FlightAware Transoceanic
Wed 11:40:00 AM 42.5615 -138.2696 110° East 483 556 40,000  Level FlightAware Transoceanic
Wed 11:40:48 AM 42.5667 -138.2667 110° East 484 557 40,000  Level Oakland Oceanic (ODAPS)
Wed 11:41:00 AM 42.5163 -138.0979 110° East 483 556 40,000  Level FlightAware Transoceanic
Wed 11:42:00 AM 42.4707 -137.9265 110° East 483 556 40,000  Level FlightAware Transoceanic
Wed 11:43:00 AM 42.4249 -137.7553 110° East 483 556 40,000  Level FlightAware Transoceanic
Wed 11:44:00 AM 42.3789 -137.5843 110° East 483 556 40,000  Level FlightAware Transoceanic
Wed 11:45:00 AM 42.3326 -137.4136 110° East 483 556 40,000  Level FlightAware Transoceanic
Wed 11:46:00 AM 42.2861 -137.2432 110° East 483 556 40,000  Level FlightAware Transoceanic
Wed 11:47:00 AM 42.2906 -137.2406 110° East 484 557 40,000  Level FlightAware Transoceanic
Wed 11:48:00 AM 42.2437 -137.0704 110° East 484 557 40,000  Level FlightAware Transoceanic
Wed 11:49:00 AM 42.1965 -136.9006 111° Southeast 484 557 40,000  Level FlightAware Transoceanic
Wed 11:50:00 AM 42.1491 -136.7310 111° Southeast 484 557 40,000  Level FlightAware Transoceanic
Wed 11:51:00 AM 42.1015 -136.5616 111° Southeast 484 557 40,000  Level FlightAware Transoceanic
Wed 11:52:00 AM 42.0536 -136.3925 111° Southeast 484 557 40,000  Level FlightAware Transoceanic
Wed 11:53:00 AM 42.0054 -136.2236 111° Southeast 484 557 40,000  Level FlightAware Transoceanic
Wed 11:54:00 AM 41.9570 -136.0550 111° Southeast 484 557 40,000  Level FlightAware Transoceanic
Wed 11:54:41 AM 41.9167 -135.9167 111° Southeast 488 562 40,000  Level Oakland Oceanic (ODAPS)
Wed 11:55:00 AM 41.9084 -135.8866 111° Southeast 484 557 40,000  Level FlightAware Transoceanic
Wed 11:56:00 AM 41.8595 -135.7186 111° Southeast 484 557 40,000  Level FlightAware Transoceanic
Wed 11:57:00 AM 41.8104 -135.5507 112° Southeast 484 557 40,000  Level FlightAware Transoceanic
Wed 11:58:00 AM 41.7610 -135.3832 112° Southeast 484 557 40,000  Level FlightAware Transoceanic
Wed 11:59:00 AM 41.7114 -135.2158 112° Southeast 484 557 40,000  Level FlightAware Transoceanic
Wed 12:00:00 PM 41.6615 -135.0488 112° Southeast 484 557 40,000  Level FlightAware Transoceanic
Wed 12:01:00 PM 41.5680 -134.7394 112° Southeast 488 562 40,000  Level FlightAware Transoceanic
Wed 12:02:00 PM 41.5172 -134.5722 112° Southeast 488 562 40,000  Level FlightAware Transoceanic
Wed 12:03:00 PM 41.4662 -134.4053 112° Southeast 488 562 40,000  Level FlightAware Transoceanic
Wed 12:04:00 PM 41.4149 -134.2387 112° Southeast 488 562 40,000  Level FlightAware Transoceanic
Wed 12:05:00 PM 41.3634 -134.0724 112° Southeast 488 562 40,000  Level FlightAware Transoceanic
Wed 12:06:00 PM 41.3116 -133.9063 113° Southeast 488 562 40,000  Level FlightAware Transoceanic
Wed 12:07:00 PM 41.2596 -133.7405 113° Southeast 488 562 40,000  Level FlightAware Transoceanic
Wed 12:08:00 PM 41.2074 -133.5749 113° Southeast 488 562 40,000  Level FlightAware Transoceanic
Wed 12:08:32 PM 41.2000 -133.5667 113° Southeast 498 573 40,000  Level Oakland Oceanic (ODAPS)
Wed 12:09:00 PM 41.1549 -133.4096 113° Southeast 488 562 40,000  Level FlightAware Transoceanic
Wed 12:10:00 PM 41.1022 -133.2446 113° Southeast 488 562 40,000  Level FlightAware Transoceanic
Wed 12:11:00 PM 41.0493 -133.0798 113° Southeast 488 562 40,000  Level FlightAware Transoceanic
Wed 12:12:00 PM 40.9962 -132.9153 113° Southeast 488 562 40,000  Level FlightAware Transoceanic
Wed 12:13:00 PM 40.9427 -132.7511 113° Southeast 488 562 40,000  Level FlightAware Transoceanic
Wed 12:14:00 PM 40.8891 -132.5871 113° Southeast 488 562 40,000  Level FlightAware Transoceanic
Wed 12:15:00 PM 40.8301 -132.4179 113° Southeast 498 573 40,000  Level FlightAware Transoceanic
Wed 12:16:00 PM 40.7764 -132.2549 114° Southeast 498 573 40,000  Level FlightAware Transoceanic
Wed 12:17:00 PM 40.7224 -132.0921 114° Southeast 498 573 40,000  Level FlightAware Transoceanic
Wed 12:18:00 PM 40.6682 -131.9296 114° Southeast 498 573 40,000  Level FlightAware Transoceanic
Wed 12:19:00 PM 40.6137 -131.7673 114° Southeast 498 573 40,000  Level FlightAware Transoceanic
Wed 12:20:00 PM 40.5590 -131.6053 114° Southeast 498 573 40,000  Level FlightAware Transoceanic
Wed 12:21:00 PM 40.5041 -131.4436 114° Southeast 498 573 40,000  Level FlightAware Transoceanic
Wed 12:22:00 PM 40.4490 -131.2821 114° Southeast 498 573 40,000  Level FlightAware Transoceanic
Wed 12:22:32 PM 40.4333 -131.2333 114° Southeast 508 585 40,000  Level Oakland Oceanic (ODAPS)
Wed 12:23:00 PM 40.3937 -131.1209 114° Southeast 498 573 40,000  Level FlightAware Transoceanic
Wed 12:24:00 PM 40.3381 -130.9600 114° Southeast 498 573 40,000  Level FlightAware Transoceanic
Wed 12:25:00 PM 40.2823 -130.7993 115° Southeast 498 573 40,000  Level FlightAware Transoceanic
Wed 12:26:00 PM 40.2263 -130.6389 115° Southeast 498 573 40,000  Level FlightAware Transoceanic
Wed 12:27:00 PM 40.1700 -130.4788 115° Southeast 498 573 40,000  Level FlightAware Transoceanic
Wed 12:28:00 PM 40.1096 -130.3069 115° Southeast 508 585 40,000  Level FlightAware Transoceanic
Wed 12:29:00 PM 40.0549 -130.1533 115° Southeast 508 585 40,000  Level FlightAware Transoceanic
Wed 12:29:49 PM 40.0000 -130.0000 122° Southeast 499 574 40,000  Level Oakland Oceanic (ODAPS)
Wed 12:30:00 PM 40.0000 -130.0000 122° Southeast 508 585 40,000  Level FlightAware Transoceanic
Wed 12:31:00 PM 39.9212 -129.8388 123° Southeast 508 585 40,000  Level FlightAware Transoceanic
Wed 12:32:00 PM 39.8423 -129.6780 123° Southeast 508 585 40,000  Level FlightAware Transoceanic
Wed 12:33:00 PM 39.7631 -129.5175 123° Southeast 508 585 40,000  Level FlightAware Transoceanic
Wed 12:34:00 PM 39.6837 -129.3575 123° Southeast 508 585 40,000  Level FlightAware Transoceanic
Wed 12:35:00 PM 39.6040 -129.1978 123° Southeast 508 585 40,000  Level FlightAware Transoceanic
Wed 12:36:00 PM 39.5481 -129.0862 123° Southeast 499 574 40,000  Level FlightAware Transoceanic
Wed 12:36:13 PM 39.5167 -129.0167 123° Southeast 499 574 40,000  Level Oakland Oceanic (ODAPS)
Wed 12:37:00 PM 39.4721 -128.9350 123° Southeast 499 574 40,000  Level FlightAware Transoceanic
Wed 12:38:00 PM 39.3959 -128.7842 123° Southeast 499 574 40,000  Level FlightAware Transoceanic
Wed 12:39:00 PM 39.3195 -128.6338 123° Southeast 499 574 40,000  Level FlightAware Transoceanic
Wed 12:40:00 PM 39.2430 -128.4836 123° Southeast 499 574 40,000  Level FlightAware Transoceanic
Wed 12:41:00 PM 39.1662 -128.3338 124° Southeast 499 574 40,000  Level FlightAware Transoceanic
Wed 12:42:00 PM 39.0709 -128.1451 124° Southeast 499 574 40,000  Level FlightAware Transoceanic
Wed 12:43:00 PM 38.9960 -128.0009 124° Southeast 499 574 40,000  Level FlightAware Transoceanic
Wed 12:44:00 PM 38.9209 -127.8570 124° Southeast 499 574 40,000  Level FlightAware Transoceanic
Wed 12:45:00 PM 38.8456 -127.7134 124° Southeast 499 574 40,000  Level FlightAware Transoceanic
Wed 12:46:00 PM 38.7702 -127.5701 124° Southeast 499 574 40,000  Level FlightAware Transoceanic
Wed 12:46:50 PM 38.6994 -127.4367 111° Southeast 502 578 40,000  Level Oakland Center
Wed 12:47:00 PM 38.6946 -127.4271 124° Southeast 499 574 40,000  Level FlightAware Transoceanic
Wed 12:47:52 PM 38.6219 -127.2886 124° Southeast 502 578 40,000  Level Oakland Center
Wed 12:48:00 PM 38.6188 -127.2844 124° Southeast 499 574 40,000  Level FlightAware Transoceanic
Wed 12:48:53 PM 38.5422 -127.1411 125° Southeast 505 581 40,000  Level Oakland Center
Wed 12:49:00 PM 38.5428 -127.1421 124° Southeast 499 574 40,000  Level FlightAware Transoceanic
Wed 12:50:00 PM 38.4667 -127.0000 111° Southeast 499 574 40,000  Level FlightAware Transoceanic
Wed 12:51:00 PM 38.4158 -126.8324 111° Southeast 499 574 40,000  Level FlightAware Transoceanic
Wed 12:52:00 PM 38.3646 -126.6650 111° Southeast 499 574 40,000  Level FlightAware Transoceanic
Wed 12:54:56 PM 38.1950 -126.1180 125° Southeast 509 586 40,000  Level FlightAware ADS-B
Wed 12:55:28 PM 38.1680 -126.0320 112° Southeast 509 586 40,000  Level FlightAware ADS-B
Wed 12:56:04 PM 38.1360 -125.9290 112° Southeast 510 587 40,000  Level FlightAware ADS-B
Wed 12:56:38 PM 38.1060 -125.8350 112° Southeast 509 586 40,000  Level FlightAware ADS-B
Wed 12:57:14 PM 38.0760 -125.7380 111° Southeast 510 587 40,000  Level FlightAware ADS-B
Wed 12:57:50 PM 38.0430 -125.6350 112° Southeast 513 590 40,000  Level FlightAware ADS-B
Wed 12:58:22 PM 38.0150 -125.5470 112° Southeast 512 589 40,000  Level FlightAware ADS-B
Wed 12:58:58 PM 37.9860 -125.4470 110° East 510 587 40,000  Level FlightAware ADS-B
Wed 12:59:35 PM 37.9570 -125.3410 109° East 511 588 40,000  Level FlightAware ADS-B
Wed 01:00:10 PM 37.9310 -125.2410 108° East 512 589 40,000  Level FlightAware ADS-B
Wed 01:00:42 PM 37.9060 -125.1510 109° East 512 589 40,000  Level FlightAware ADS-B
Wed 01:01:18 PM 37.8790 -125.0500 109° East 511 588 40,000  Level FlightAware ADS-B
Wed 01:01:54 PM 37.8510 -124.9470 109° East 507 583 40,000  Level FlightAware ADS-B
Wed 01:02:29 PM 37.8240 -124.8510 110° East 507 583 40,000  Level FlightAware ADS-B
Wed 01:03:04 PM 37.7970 -124.7540 109° East 503 579 40,000  Level FlightAware ADS-B
Wed 01:03:35 PM 37.7740 -124.6670 108° East 502 578 40,000  Level FlightAware ADS-B
Wed 01:04:12 PM 37.7450 -124.5650 110° East 501 577 40,000  Level FlightAware ADS-B
Wed 01:04:48 PM 37.7180 -124.4670 109° East 501 577 40,000  Level FlightAware ADS-B
Wed 01:05:24 PM 37.6900 -124.3660 109° East 502 578 40,000  Level FlightAware ADS-B
Wed 01:06:01 PM 37.6620 -124.2670 110° East 504 580 40,000 88 Level FlightAware ADS-B
Wed 01:06:32 PM 37.6370 -124.1780 110° East 510 587 40,100 448 Climbing FlightAware ADS-B
Wed 01:07:08 PM 37.6090 -124.0770 109° East 513 590 40,500 730 Climbing FlightAware ADS-B
Wed 01:07:46 PM 37.5790 -123.9720 110° East 510 587 41,000 435 Climbing FlightAware ADS-B
Wed 01:08:17 PM 37.5540 -123.8860 110° East 504 580 41,000  Level FlightAware ADS-B
Wed 01:08:56 PM 37.5130 -123.7820 116° Southeast 505 581 41,000  Level FlightAware ADS-B
Wed 01:09:28 PM 37.4760 -123.7020 120° Southeast 506 582 41,000  Level FlightAware ADS-B
Wed 01:10:02 PM 37.4360 -123.6160 120° Southeast 506 582 41,000  Level FlightAware ADS-B
Wed 01:10:40 PM 37.3910 -123.5180 120° Southeast 508 585 41,000  Level FlightAware ADS-B
Wed 01:11:16 PM 37.3470 -123.4250 121° Southeast 507 583 41,000  Level FlightAware ADS-B
Wed 01:11:56 PM 37.3000 -123.3240 120° Southeast 507 583 41,000  Level FlightAware ADS-B
Wed 01:12:32 PM 37.2570 -123.2330 121° Southeast 506 582 41,000  Level FlightAware ADS-B
Wed 01:13:04 PM 37.2190 -123.1520 120° Southeast 506 582 41,000  Level FlightAware ADS-B
Wed 01:13:42 PM 37.1730 -123.0560 121° Southeast 507 583 41,000  Level FlightAware ADS-B
Wed 01:14:18 PM 37.1310 -122.9670 121° Southeast 509 586 41,000  Level FlightAware ADS-B
Wed 01:14:50 PM 37.0920 -122.8840 120° Southeast 508 585 41,000  Level FlightAware ADS-B
Wed 01:15:26 PM 37.0490 -122.7940 121° Southeast 509 586 41,000  Level FlightAware ADS-B
Wed 01:16:02 PM 37.0050 -122.7030 121° Southeast 509 586 41,000  Level FlightAware ADS-B
Wed 01:16:36 PM 36.9630 -122.6150 121° Southeast 510 587 41,000  Level FlightAware ADS-B
Wed 01:17:06 PM 36.9278 -122.5410 121° Southeast 508 585 41,000  Level FlightAware ADS-B
Wed 01:17:48 PM 36.8770 -122.4360 121° Southeast 503 579 41,000  Level FlightAware ADS-B
Wed 01:18:24 PM 36.8340 -122.3470 121° Southeast 491 565 41,000  Level FlightAware ADS-B
Wed 01:18:55 PM 36.7990 -122.2750 121° Southeast 485 558 41,000  Level FlightAware ADS-B
Wed 01:19:33 PM 36.7550 -122.1830 121° Southeast 483 556 41,000  Level FlightAware ADS-B
Wed 01:19:53 PM 36.7315 -122.1350 121° Southeast 485 558 41,000  Level FlightAware ADS-B
Wed 01:20:35 PM 36.6820 -122.0340 121° Southeast 485 558 41,000  Level FlightAware ADS-B
Wed 01:21:11 PM 36.6410 -121.9500 121° Southeast 485 558 41,000  Level FlightAware ADS-B
Wed 01:21:45 PM 36.6020 -121.8710 122° Southeast 484 557 41,000  Level FlightAware ADS-B
Wed 01:22:19 PM 36.5609 -121.7870 121° Southeast 485 558 41,000  Level FlightAware ADS-B
Wed 01:22:57 PM 36.5180 -121.7000 122° Southeast 482 555 41,000  Level FlightAware ADS-B
Wed 01:23:29 PM 36.4800 -121.6240 122° Southeast 481 554 41,000  Level FlightAware ADS-B
Wed 01:24:03 PM 36.4410 -121.5440 121° Southeast 481 554 41,000  Level FlightAware ADS-B
Wed 01:24:40 PM 36.4000 -121.4620 122° Southeast 481 554 41,000  Level FlightAware ADS-B
Wed 01:25:17 PM 36.3560 -121.3720 121° Southeast 481 554 41,000  Level FlightAware ADS-B
Wed 01:25:52 PM 36.3556 -121.3720 180° South 481 554 41,000  Level FlightAware ADS-B
Wed 01:26:24 PM 36.2751 -121.2110 122° Southeast 482 555 41,000  Level FlightAware ADS-B
Wed 01:26:59 PM 36.2350 -121.1310 122° Southeast 483 556 41,000  Level FlightAware ADS-B
Wed 01:27:37 PM 36.1880 -121.0460 124° Southeast 484 557 41,000  Level FlightAware ADS-B
Wed 01:28:09 PM 36.1430 -120.9770 129° Southeast 485 558 41,000  Level FlightAware ADS-B
Wed 01:28:45 PM 36.0920 -120.8990 129° Southeast 484 557 41,000  Level FlightAware ADS-B
Wed 01:29:21 PM 36.0420 -120.8230 129° Southeast 484 557 41,000  Level FlightAware ADS-B
Wed 01:29:57 PM 35.9900 -120.7430 129° Southeast 483 556 41,000  Level FlightAware ADS-B
Wed 01:30:29 PM 35.9450 -120.6740 129° Southeast 483 556 41,000  Level FlightAware ADS-B
Wed 01:31:07 PM 35.8910 -120.5920 129° Southeast 482 555 41,000  Level FlightAware ADS-B
Wed 01:31:37 PM 35.8480 -120.5270 129° Southeast 484 557 41,000  Level FlightAware ADS-B
Wed 01:32:15 PM 35.7960 -120.4480 129° Southeast 485 558 41,000  Level FlightAware ADS-B
Wed 01:32:51 PM 35.7450 -120.3720 130° Southeast 486 559 41,000  Level FlightAware ADS-B
Wed 01:33:25 PM 35.6970 -120.2990 129° Southeast 486 559 41,000  Level FlightAware ADS-B
Wed 01:34:01 PM 35.6450 -120.2210 129° Southeast 487 560 41,000  Level FlightAware ADS-B
Wed 01:34:37 PM 35.5920 -120.1430 130° Southeast 486 559 41,000 -1,235 Level FlightAware ADS-B
Wed 01:35:09 PM 35.5420 -120.0810 135° Southeast 495 570 39,600 -2,382 Descending FlightAware ADS-B
Wed 01:35:45 PM 35.4830 -120.0200 140° Southeast 496 571 38,300 -2,451 Descending FlightAware ADS-B
Wed 01:36:20 PM 35.4160 -119.9510 140° Southeast 496 571 36,700 -2,522 Descending FlightAware ADS-B
Wed 01:36:54 PM 35.3580 -119.8910 140° Southeast 485 558 35,400 -2,282 Descending FlightAware ADS-B
Wed 01:37:31 PM 35.2980 -119.8300 140° Southeast 450 518 34,000 -2,270 Descending FlightAware ADS-B
Wed 01:38:08 PM 35.2400 -119.7700 140° Southeast 427 491 32,600 -2,182 Descending FlightAware ADS-B
Wed 01:38:37 PM 35.1960 -119.7250 140° Southeast 423 487 31,600 -1,754 Descending FlightAware ADS-B
Wed 01:39:13 PM 35.1450 -119.6730 140° Southeast 425 489 30,700 -1,521 Descending FlightAware ADS-B
Wed 01:39:48 PM 35.0910 -119.6180 140° Southeast 421 484 29,800 -1,652 Descending FlightAware ADS-B
Wed 01:40:22 PM 35.0390 -119.5650 140° Southeast 417 480 28,800 -1,833 Descending FlightAware ADS-B
Wed 01:41:00 PM 34.9810 -119.5070 141° Southeast 443 510 27,600 -2,301 Descending FlightAware ADS-B
Wed 01:41:35 PM 34.9250 -119.4500 140° Southeast 453 521 26,000 -2,357 Descending FlightAware ADS-B
Wed 01:42:24 PM 34.8470 -119.3710 140° Southeast 448 516 24,300 -2,118 Descending FlightAware ADS-B
Wed 01:43:00 PM 34.7880 -119.3120 141° Southeast 441 507 23,000 -1,917 Descending FlightAware ADS-B
Wed 01:43:36 PM 34.7340 -119.2570 140° Southeast 431 496 22,000 -1,652 Descending FlightAware ADS-B
Wed 01:44:09 PM 34.6820 -119.2050 141° Southeast 422 486 21,100 -1,304 Descending FlightAware ADS-B
Wed 01:44:45 PM 34.6310 -119.1550 141° Southeast 423 487 20,500 -1,063 Descending FlightAware ADS-B
Wed 01:45:28 PM 34.5650 -119.0880 140° Southeast 416 479 19,700 -1,846 Descending FlightAware ADS-B
Wed 01:46:03 PM 34.5120 -119.0360 141° Southeast 402 463 18,100 -2,382 Descending FlightAware ADS-B
Wed 01:46:36 PM 34.4660 -118.9900 140° Southeast 398 458 17,000 -2,000 Descending FlightAware ADS-B
Wed 01:47:12 PM 34.4150 -118.9390 140° Southeast 389 448 15,800 -1,881 Descending FlightAware ADS-B
Wed 01:47:43 PM 34.3740 -118.9000 142° Southeast 382 440 14,900 -2,028 Descending FlightAware ADS-B
Wed 01:48:23 PM 34.3090 -118.8630 155° Southeast 365 420 13,400 -2,000 Descending FlightAware ADS-B
Wed 01:48:58 PM 34.2580 -118.8450 164° South 328 377 12,400 -1,200 Descending FlightAware ADS-B
Wed 01:49:33 PM 34.2070 -118.8260 163° South 312 359 12,000 -448 Descending FlightAware ADS-B
Wed 01:50:05 PM 34.1640 -118.8100 163° South 314 361 11,900 -86 Descending FlightAware ADS-B
Wed 01:50:43 PM 34.1130 -118.7920 164° South 315 362 11,900  Level FlightAware ADS-B
Wed 01:51:04 PM 34.0800 -118.7840 169° South 315 362 11,900 -643 Level FlightAware ADS-B
Wed 01:51:39 PM 34.0290 -118.7950 190° South 316 364 11,300 -952 Descending FlightAware ADS-B
Wed 01:52:07 PM 33.9910 -118.7850 168° South 309 356 10,900 -500 Descending FlightAware ADS-B
Wed 01:52:27 PM 33.9740 -118.7610 130° Southeast 301 346 10,900  Level FlightAware ADS-B
Wed 01:52:35 PM 33.9710 -118.7470 104° East 297 342 10,900  Level FlightAware ADS-B
Wed 01:52:44 PM 33.9700 -118.7340 95° East 296 341 10,900  Level FlightAware ADS-B
Wed 01:53:17 PM 33.9800 -118.6780 78° East 290 334 10,900 -197 Level FlightAware ADS-B
Wed 01:53:45 PM 34.0000 -118.6400 58° Northeast 290 334 10,700 -842 Descending FlightAware ADS-B
Wed 01:54:14 PM 34.0090 -118.5950 76° East 296 341 10,100 -1,286 Descending FlightAware ADS-B
Wed 01:54:41 PM 34.0090 -118.5530 90° East 297 342 9,500 -1,579 Descending FlightAware ADS-B
Wed 01:54:52 PM 34.0090 -118.5350 90° East 292 336 9,100 -2,571 Descending FlightAware ADS-B
Wed 01:55:16 PM 34.0100 -118.4970 88° East 288 331 8,000 -2,423 Descending FlightAware ADS-B
Wed 01:55:44 PM 34.0110 -118.4490 89° East 287 330 7,000 -2,082 Descending FlightAware ADS-B
Wed 01:56:05 PM 34.0140 -118.4150 84° East 274 315 6,300 -2,341 Descending FlightAware ADS-B
Wed 01:56:25 PM 34.0180 -118.3850 81° East 274 315 5,400 -1,756 Descending FlightAware ADS-B
Wed 01:56:46 PM 34.0210 -118.3540 83° East 250 288 5,100 -878 Descending FlightAware ADS-B
Wed 01:57:06 PM 34.0240 -118.3280 82° East 231 266 4,800 -1,000 Descending FlightAware ADS-B
Wed 01:57:28 PM 34.0280 -118.3020 79° East 206 237 4,400 -878 Descending FlightAware ADS-B
Wed 01:57:47 PM 34.0300 -118.2800 84° East 202 232 4,200 -878 Descending FlightAware ADS-B
Wed 01:58:09 PM 34.0330 -118.2570 81° East 203 234 3,800 -977 Descending FlightAware ADS-B
Wed 01:58:30 PM 34.0360 -118.2330 81° East 199 229 3,500 -800 Descending FlightAware ADS-B
Wed 01:58:54 PM 34.0300 -118.2120 109° East 190 219 3,200 -692 Descending FlightAware ADS-B
Wed 01:58:56 PM 34.0280 -118.2100 140° Southeast 189 217 3,200 -1,091 Level FlightAware ADS-B
Wed 01:59:05 PM 34.0210 -118.2070 160° South 186 214 3,000 -1,059 Descending FlightAware ADS-B
Wed 01:59:13 PM 34.0140 -118.2050 167° South 186 214 2,900 -750 Descending FlightAware ADS-B
Wed 01:59:29 PM 34.0010 -118.2040 176° South 184 212 2,700 -545 Descending FlightAware ADS-B
Wed 01:59:57 PM 33.9790 -118.2180 208° Southwest 187 215 2,500 -273 Descending FlightAware ADS-B
Wed 02:00:13 PM 33.9710 -118.2310 233° Southwest 190 219 2,500  Level FlightAware ADS-B
Wed 02:00:24 PM 33.9680 -118.2410 250° West 193 222 2,500 -558 Level FlightAware ADS-B
Wed 02:00:56 PM 33.9660 -118.2760 266° West 198 228 2,100 -870 Descending FlightAware ADS-B
Wed 02:01:33 PM 33.9610 -118.3100 260° West 161 185 1,500 -828 Descending FlightAware ADS-B
Wed 02:01:54 PM 33.9600 -118.3270 266° West 144 166 1,300 -381 Descending FlightAware ADS-B
Wed 02:02:36 PM 33.9570 -118.3590 264° West 142 163 1,100 -512 Descending FlightAware ADS-B
Wed 02:03:16 PM 33.9540 -118.3870 263° West 142 163 600 -750 Descending FlightAware ADS-B

Login

Don't have an account? Register now (free) for customized features, flight alerts, and more!